Time;durP1;ratioP1;P1;durP2;ratioP2;P2;SDS_P1;SDS_P2;PMS_P1;PMS_P2;Temp;Humidity;BMP_temperature;BMP_pressure;BME280_temperature;BME280_humidity;BME280_pressure;Samples;Min_cycle;Max_cycle;Signal;HPM_P1;HPM_P2
2023/01/29 00:00:08;;;;;;;19.17;11.17;;;6.40;93.30;;;;;;5066222;28;20205;-76
2023/01/29 00:02:37;;;;;;;21.30;11.07;;;6.40;93.30;;;;;;5057410;28;20235;-78
2023/01/29 00:05:08;;;;;;;25.90;13.13;;;6.40;93.30;;;;;;5070063;28;20246;-76
2023/01/29 00:07:57;;;;;;;23.43;11.90;;;6.40;93.30;;;;;;5065633;28;20370;-76
2023/01/29 00:10:26;;;;;;;23.60;11.87;;;6.30;93.30;;;;;;5068791;28;20654;-77
2023/01/29 00:12:54;;;;;;;21.27;11.40;;;6.40;93.40;;;;;;5067989;28;20193;-76
2023/01/29 00:15:22;;;;;;;24.10;11.83;;;6.40;93.30;;;;;;5063396;28;20237;-76
2023/01/29 00:17:51;;;;;;;26.33;13.47;;;6.30;93.30;;;;;;5064266;28;20196;-75
2023/01/29 00:20:21;;;;;;;28.40;12.90;;;6.40;93.40;;;;;;5067309;28;20208;-76
2023/01/29 00:22:49;;;;;;;29.47;13.13;;;6.30;93.30;;;;;;5061464;28;20208;-77
2023/01/29 00:25:17;;;;;;;27.07;13.13;;;6.30;93.30;;;;;;5066566;28;20628;-77
2023/01/29 00:27:46;;;;;;;32.57;15.07;;;6.30;93.30;;;;;;5066686;28;20193;-76
2023/01/29 00:30:17;;;;;;;30.13;15.23;;;6.30;93.40;;;;;;5075386;28;20200;-76
2023/01/29 00:32:47;;;;;;;28.70;14.63;;;6.30;93.40;;;;;;5066348;28;20194;-76
2023/01/29 00:35:17;;;;;;;27.73;14.10;;;6.30;93.40;;;;;;5063834;28;21087;-77
2023/01/29 00:37:47;;;;;;;28.53;14.57;;;6.30;93.40;;;;;;5064851;28;20216;-76
2023/01/29 00:40:15;;;;;;;29.40;15.03;;;6.30;93.80;;;;;;5065600;28;20731;-76
2023/01/29 00:45:31;;;;;;;27.53;14.13;;;6.30;93.50;;;;;;5067539;28;20644;-76
2023/01/29 00:47:59;;;;;;;24.53;13.20;;;6.30;93.40;;;;;;5049170;28;20198;-77
2023/01/29 00:50:28;;;;;;;29.97;13.43;;;6.30;93.40;;;;;;5059180;28;20200;-78
2023/01/29 00:52:57;;;;;;;23.27;12.73;;;6.30;93.40;;;;;;5076489;28;20282;-77
2023/01/29 00:55:26;;;;;;;26.80;14.53;;;6.30;93.40;;;;;;5070700;28;20259;-76
2023/01/29 00:57:54;;;;;;;29.33;13.43;;;6.30;93.50;;;;;;5072457;28;20257;-75
2023/01/29 01:00:23;;;;;;;26.20;12.90;;;6.40;93.50;;;;;;5066492;28;20219;-76
2023/01/29 01:03:05;;;;;;;25.43;13.10;;;6.30;93.50;;;;;;5068133;28;20216;-76
2023/01/29 01:05:35;;;;;;;25.80;13.30;;;6.40;93.50;;;;;;5063530;28;20197;-77
2023/01/29 01:10:19;;;;;;;25.70;13.00;;;6.40;93.50;;;;;;5066692;28;20196;-76
2023/01/29 01:11:01;;;;;;;25.67;12.97;;;6.40;93.60;;;;;;5057887;28;20192;-77
2023/01/29 01:13:31;;;;;;;27.07;12.53;;;6.40;93.60;;;;;;5071519;28;20713;-75
2023/01/29 01:16:00;;;;;;;32.27;16.00;;;6.40;93.60;;;;;;5070085;28;20286;-76
2023/01/29 01:18:30;;;;;;;29.30;14.67;;;6.40;93.60;;;;;;5071919;28;20240;-77
2023/01/29 01:20:58;;;;;;;29.80;15.27;;;6.40;93.60;;;;;;5075105;28;20199;-75
2023/01/29 01:23:28;;;;;;;28.50;13.60;;;6.40;93.60;;;;;;5068291;28;20191;-76
2023/01/29 01:25:56;;;;;;;26.47;13.63;;;6.40;93.60;;;;;;5065022;28;20196;-76
2023/01/29 01:28:25;;;;;;;26.67;13.53;;;6.50;93.60;;;;;;5071700;28;20196;-76
2023/01/29 01:30:53;;;;;;;23.40;13.23;;;6.50;93.50;;;;;;5068285;28;20913;-76
2023/01/29 01:33:22;;;;;;;21.53;10.90;;;6.50;93.70;;;;;;5074754;28;20191;-76
2023/01/29 01:35:50;;;;;;;19.83;11.03;;;6.50;93.70;;;;;;5066941;28;20275;-76
2023/01/29 01:38:18;;;;;;;21.23;11.67;;;6.50;93.70;;;;;;5067604;28;20198;-75
2023/01/29 01:40:48;;;;;;;23.23;11.80;;;6.50;93.70;;;;;;5063430;28;20254;-76
2023/01/29 01:43:16;;;;;;;20.00;10.73;;;6.50;93.70;;;;;;5067145;28;20228;-76
2023/01/29 01:45:45;;;;;;;21.87;11.97;;;6.50;93.60;;;;;;5066644;28;20194;-76
2023/01/29 01:48:17;;;;;;;21.60;11.50;;;6.50;93.60;;;;;;5071865;28;20197;-78
2023/01/29 01:50:49;;;;;;;23.83;11.90;;;6.50;93.60;;;;;;5070877;28;20246;-78
2023/01/29 01:53:23;;;;;;;26.57;13.63;;;6.50;93.50;;;;;;5070228;28;20657;-76
2023/01/29 01:55:58;;;;;;;27.00;14.13;;;6.50;93.50;;;;;;5064649;28;20243;-76
2023/01/29 01:58:32;;;;;;;23.57;12.30;;;6.40;93.40;;;;;;5069355;28;20232;-75
2023/01/29 02:01:01;;;;;;;25.50;13.53;;;6.40;93.40;;;;;;5063316;28;20265;-77
2023/01/29 02:11:55;;;;;;;24.10;11.87;;;6.40;93.60;;;;;;5064197;28;20242;-77
2023/01/29 02:14:24;;;;;;;23.47;12.43;;;6.40;93.50;;;;;;5066405;28;20560;-76
2023/01/29 02:16:52;;;;;;;18.80;10.17;;;6.40;93.50;;;;;;5066291;28;20226;-77
2023/01/29 02:19:30;;;;;;;20.10;10.90;;;6.40;93.50;;;;;;5066736;28;20201;-76
2023/01/29 02:22:28;;;;;;;20.10;11.23;;;6.40;93.50;;;;;;5063726;28;20198;-76
2023/01/29 02:25:15;;;;;;;21.27;11.10;;;6.40;93.50;;;;;;5066812;28;20201;-77
2023/01/29 02:28:13;;;;;;;19.43;10.40;;;6.40;93.50;;;;;;5061697;28;20260;-77
2023/01/29 02:30:48;;;;;;;21.30;10.13;;;6.40;93.50;;;;;;5061172;28;20200;-78
2023/01/29 02:33:24;;;;;;;20.30;10.10;;;6.40;93.50;;;;;;5068780;28;20208;-76
2023/01/29 02:35:59;;;;;;;17.07;8.90;;;6.40;93.50;;;;;;5071219;28;20238;-77
2023/01/29 02:38:33;;;;;;;17.33;9.57;;;6.40;93.50;;;;;;5067615;28;20191;-76
2023/01/29 02:41:07;;;;;;;18.80;10.13;;;6.40;93.50;;;;;;5055962;28;20856;-76
2023/01/29 02:43:45;;;;;;;16.43;8.70;;;6.40;93.50;;;;;;5065513;28;20675;-76
2023/01/29 02:46:21;;;;;;;17.13;9.03;;;6.40;93.60;;;;;;5068409;28;20197;-76
2023/01/29 02:48:59;;;;;;;16.33;9.30;;;6.40;93.50;;;;;;5065634;28;20673;-78
2023/01/29 02:51:35;;;;;;;14.80;8.07;;;6.40;93.50;;;;;;5064106;28;20286;-76
2023/01/29 02:54:07;;;;;;;15.60;8.75;;;6.40;93.50;;;;;;5059188;28;20998;-77
2023/01/29 02:56:40;;;;;;;13.17;7.30;;;6.40;93.70;;;;;;5070496;28;20279;-76
2023/01/29 02:59:16;;;;;;;12.37;6.53;;;6.40;93.70;;;;;;5070779;28;20188;-77
2023/01/29 03:01:48;;;;;;;11.07;6.07;;;6.40;93.70;;;;;;5062283;28;20197;-79
2023/01/29 03:04:22;;;;;;;12.67;6.53;;;6.40;93.60;;;;;;5071087;28;20191;-77
2023/01/29 03:06:57;;;;;;;10.13;6.00;;;6.40;93.60;;;;;;5070402;28;20186;-76
2023/01/29 03:09:33;;;;;;;10.10;6.30;;;6.40;93.60;;;;;;5067771;28;20185;-77
2023/01/29 03:12:17;;;;;;;12.53;6.10;;;6.40;93.50;;;;;;5064634;28;20189;-76
2023/01/29 03:17:41;;;;;;;11.13;5.83;;;6.40;93.50;;;;;;5064014;28;20209;-76
2023/01/29 03:20:14;;;;;;;10.27;6.07;;;6.40;93.50;;;;;;5066347;28;20192;-77
2023/01/29 03:22:50;;;;;;;10.07;5.33;;;6.40;93.40;;;;;;5065528;28;20373;-77
2023/01/29 03:33:54;;;;;;;9.90;5.77;;;6.40;93.30;;;;;;5063859;28;20207;-76
2023/01/29 03:36:27;;;;;;;8.37;5.23;;;6.40;93.30;;;;;;5059103;28;20211;-77
2023/01/29 03:38:55;;;;;;;8.50;5.03;;;6.40;93.30;;;;;;5072978;28;20189;-77
2023/01/29 03:41:29;;;;;;;9.70;5.23;;;6.40;93.30;;;;;;5065925;28;20257;-77
2023/01/29 03:44:09;;;;;;;8.87;5.10;;;6.30;93.30;;;;;;5060112;28;22631;-76
2023/01/29 03:46:45;;;;;;;7.87;4.97;;;6.30;93.30;;;;;;5061222;28;20216;-77
2023/01/29 03:49:21;;;;;;;10.40;5.90;;;6.30;93.30;;;;;;5063093;28;20219;-77
2023/01/29 03:51:55;;;;;;;9.40;5.93;;;6.30;93.30;;;;;;5058278;28;20249;-76
2023/01/29 03:54:29;;;;;;;9.27;5.20;;;6.30;93.30;;;;;;5056405;28;20199;-76
2023/01/29 03:57:02;;;;;;;11.83;6.60;;;6.30;93.20;;;;;;5057796;28;20561;-76
2023/01/29 03:59:38;;;;;;;9.33;5.47;;;6.30;93.30;;;;;;5056217;28;20274;-76
2023/01/29 04:02:13;;;;;;;12.03;6.03;;;6.30;93.30;;;;;;5060278;28;20241;-76
2023/01/29 04:04:45;;;;;;;8.77;5.13;;;6.30;93.30;;;;;;5055026;28;20254;-78
2023/01/29 04:07:17;;;;;;;12.67;5.93;;;6.30;93.30;;;;;;5055779;28;20274;-76
2023/01/29 04:09:49;;;;;;;9.27;5.37;;;6.30;93.30;;;;;;5060631;28;20211;-77
2023/01/29 04:12:21;;;;;;;9.47;5.43;;;6.30;93.30;;;;;;5054491;28;20236;-78
2023/01/29 04:14:51;;;;;;;8.47;5.60;;;6.30;93.30;;;;;;5058843;28;20230;-77
2023/01/29 04:17:28;;;;;;;10.30;5.70;;;6.30;93.30;;;;;;5058601;28;20252;-76
2023/01/29 04:19:57;;;;;;;9.40;5.63;;;6.30;93.30;;;;;;5059251;28;20189;-76
2023/01/29 04:22:31;;;;;;;10.83;6.13;;;6.30;93.20;;;;;;5055358;28;20188;-76
2023/01/29 04:25:07;;;;;;;10.70;5.87;;;6.20;93.20;;;;;;5055665;28;20780;-78
2023/01/29 04:27:43;;;;;;;11.23;6.80;;;6.20;93.30;;;;;;5055234;28;20943;-80
2023/01/29 04:30:28;;;;;;;11.53;5.80;;;6.20;93.30;;;;;;5055615;28;20549;-76
2023/01/29 04:33:12;;;;;;;8.70;5.63;;;6.20;93.30;;;;;;5058810;28;20235;-77
2023/01/29 04:35:54;;;;;;;12.80;6.07;;;6.20;93.30;;;;;;5064908;28;20185;-75
2023/01/29 04:38:32;;;;;;;11.10;6.40;;;6.20;93.30;;;;;;5064589;28;20191;-76
2023/01/29 04:41:05;;;;;;;10.10;6.40;;;6.20;93.30;;;;;;5070879;28;20194;-76
2023/01/29 04:43:41;;;;;;;10.50;6.07;;;6.20;93.30;;;;;;5065189;28;20192;-76
2023/01/29 04:46:16;;;;;;;10.87;5.90;;;6.20;93.30;;;;;;5060655;28;20191;-77
2023/01/29 04:49:01;;;;;;;11.90;6.27;;;6.20;93.30;;;;;;5066952;28;20204;-76
2023/01/29 04:51:38;;;;;;;10.27;5.97;;;6.20;93.30;;;;;;5062462;28;20199;-76
2023/01/29 04:54:15;;;;;;;9.73;5.70;;;6.20;93.30;;;;;;5069086;28;20252;-76
2023/01/29 04:56:52;;;;;;;10.23;6.37;;;6.20;93.30;;;;;;5060844;28;20279;-75
2023/01/29 04:59:25;;;;;;;10.10;6.75;;;6.10;93.30;;;;;;5061443;28;20440;-76
2023/01/29 05:01:53;;;;;;;11.23;6.53;;;6.10;93.40;;;;;;5063870;28;20193;-76
2023/01/29 05:04:24;;;;;;;11.57;6.53;;;6.10;93.40;;;;;;5062414;28;20192;-76
2023/01/29 05:06:53;;;;;;;11.17;6.17;;;6.10;93.40;;;;;;5058434;28;20213;-75
2023/01/29 05:09:23;;;;;;;11.40;6.43;;;6.10;93.30;;;;;;5070392;28;20251;-75
2023/01/29 05:11:52;;;;;;;13.70;8.00;;;6.00;93.30;;;;;;5064259;28;20439;-76
2023/01/29 05:14:23;;;;;;;9.40;5.57;;;6.00;93.50;;;;;;5069122;28;20205;-74
2023/01/29 05:16:54;;;;;;;11.83;7.20;;;5.90;93.50;;;;;;5065064;28;20263;-75
2023/01/29 05:19:23;;;;;;;13.50;6.50;;;5.90;93.50;;;;;;5072463;28;20199;-75
2023/01/29 05:21:52;;;;;;;12.23;7.40;;;5.90;93.50;;;;;;5058782;28;20259;-75
2023/01/29 05:24:22;;;;;;;10.93;6.27;;;5.90;93.50;;;;;;5068329;28;20199;-74
2023/01/29 05:29:41;;;;;;;15.03;7.03;;;5.80;93.60;;;;;;5064285;28;20192;-74
2023/01/29 05:32:10;;;;;;;13.00;6.50;;;5.80;93.60;;;;;;5069836;28;20296;-76
2023/01/29 05:34:39;;;;;;;15.48;8.00;;;5.70;93.60;;;;;;5069124;28;20939;-75
2023/01/29 05:37:08;;;;;;;17.33;7.93;;;5.70;93.60;;;;;;5065731;28;20228;-74
2023/01/29 05:39:37;;;;;;;12.47;6.67;;;5.70;93.70;;;;;;5061112;28;20226;-75
2023/01/29 05:42:05;;;;;;;13.57;7.43;;;5.70;93.70;;;;;;5070789;28;20212;-75
2023/01/29 05:44:33;;;;;;;12.00;6.47;;;5.70;93.70;;;;;;5071199;28;20230;-75
2023/01/29 05:47:02;;;;;;;16.13;8.07;;;5.70;93.70;;;;;;5069337;28;20439;-75
2023/01/29 05:49:31;;;;;;;14.20;7.40;;;5.70;93.90;;;;;;5071347;28;20703;-76
2023/01/29 05:52:00;;;;;;;15.10;7.63;;;5.70;93.90;;;;;;5064347;28;20590;-76
2023/01/29 05:54:29;;;;;;;14.97;7.30;;;5.70;93.90;;;;;;5065426;28;20596;-76
2023/01/29 05:56:57;;;;;;;15.17;7.43;;;5.70;93.90;;;;;;5069641;28;20267;-77
2023/01/29 05:59:25;;;;;;;14.93;7.03;;;5.70;93.90;;;;;;5065288;28;20972;-75
2023/01/29 06:01:54;;;;;;;13.47;7.07;;;5.70;93.90;;;;;;5076242;28;20196;-74
2023/01/29 06:04:22;;;;;;;14.60;7.57;;;5.70;93.80;;;;;;5061337;28;20192;-73
2023/01/29 06:06:50;;;;;;;10.80;5.77;;;5.70;93.90;;;;;;5071808;28;20196;-76
2023/01/29 06:09:20;;;;;;;12.00;6.13;;;5.70;93.90;;;;;;5073789;28;20725;-75
2023/01/29 06:11:48;;;;;;;15.83;7.47;;;5.70;93.90;;;;;;5065400;28;20219;-75
2023/01/29 06:14:17;;;;;;;13.13;6.70;;;5.70;93.90;;;;;;5063952;28;20199;-76
2023/01/29 06:16:45;;;;;;;13.20;7.23;;;5.60;93.90;;;;;;5069062;28;20194;-73
2023/01/29 06:19:13;;;;;;;12.23;6.37;;;5.60;93.90;;;;;;5065302;28;20191;-75
2023/01/29 06:21:42;;;;;;;13.43;7.13;;;5.60;93.90;;;;;;5061194;28;20194;-76
2023/01/29 06:24:10;;;;;;;12.03;6.50;;;5.70;93.90;;;;;;5068674;28;20265;-75
2023/01/29 06:26:40;;;;;;;11.23;5.87;;;5.60;93.90;;;;;;5069546;28;20207;-75
2023/01/29 06:29:08;;;;;;;12.30;7.20;;;5.70;93.90;;;;;;5066634;28;20194;-74
2023/01/29 06:31:36;;;;;;;14.52;7.68;;;5.70;94.00;;;;;;5067528;28;20443;-79
2023/01/29 06:34:07;;;;;;;13.20;7.20;;;5.70;94.10;;;;;;5068476;28;20212;-76
2023/01/29 06:36:35;;;;;;;15.23;7.40;;;5.70;94.10;;;;;;5064026;28;20198;-75
2023/01/29 06:39:04;;;;;;;13.93;6.77;;;5.70;94.10;;;;;;5072967;28;20214;-75
2023/01/29 06:41:32;;;;;;;12.03;6.03;;;5.70;94.00;;;;;;5067465;28;20245;-75
2023/01/29 06:44:02;;;;;;;13.13;6.57;;;5.70;94.00;;;;;;5061678;28;20204;-77
2023/01/29 06:46:31;;;;;;;14.98;8.07;;;5.70;94.00;;;;;;5066570;28;20796;-76
2023/01/29 06:49:00;;;;;;;15.40;8.00;;;5.70;94.10;;;;;;5068233;28;21510;-76
2023/01/29 06:51:28;;;;;;;14.50;7.03;;;5.70;94.10;;;;;;5063306;28;20253;-78
2023/01/29 06:53:56;;;;;;;13.37;6.50;;;5.70;94.00;;;;;;5064753;28;20223;-75
2023/01/29 06:56:25;;;;;;;11.70;6.80;;;5.70;94.00;;;;;;5069537;28;20226;-76
2023/01/29 06:58:53;;;;;;;14.00;6.10;;;5.80;94.00;;;;;;5060655;28;20572;-75
2023/01/29 07:01:23;;;;;;;14.18;7.40;;;5.80;94.00;;;;;;5063625;28;20444;-77
2023/01/29 07:04:03;;;;;;;12.63;6.57;;;5.80;94.20;;;;;;5068477;28;22432;-75
2023/01/29 07:06:31;;;;;;;12.63;6.73;;;5.80;94.10;;;;;;5067356;28;20245;-76
2023/01/29 07:09:00;;;;;;;13.87;6.53;;;5.90;94.10;;;;;;5064980;28;20197;-76
2023/01/29 07:11:28;;;;;;;12.13;5.90;;;5.90;94.00;;;;;;5056225;28;20196;-76
2023/01/29 07:13:56;;;;;;;12.90;6.33;;;5.90;93.90;;;;;;5059283;28;20201;-76
2023/01/29 07:16:26;;;;;;;14.75;7.55;;;5.90;93.80;;;;;;5069646;28;20437;-76
2023/01/29 07:18:55;;;;;;;13.53;6.60;;;5.90;93.90;;;;;;5058187;28;20228;-77
2023/01/29 07:21:23;;;;;;;13.00;6.43;;;6.00;93.90;;;;;;5063311;28;20198;-76
2023/01/29 07:23:52;;;;;;;12.77;6.27;;;6.00;93.80;;;;;;5068808;28;20665;-76
2023/01/29 07:26:20;;;;;;;16.33;6.90;;;6.00;93.80;;;;;;5061260;28;20225;-76
2023/01/29 07:28:48;;;;;;;11.83;6.03;;;6.00;93.70;;;;;;5063741;28;20257;-75
2023/01/29 07:31:17;;;;;;;10.07;6.13;;;6.00;93.60;;;;;;5062894;28;20242;-76
2023/01/29 07:33:47;;;;;;;15.63;6.40;;;6.00;93.60;;;;;;5076791;28;20192;-76
2023/01/29 07:36:15;;;;;;;15.37;6.57;;;6.00;93.50;;;;;;5068429;28;20201;-76
2023/01/29 07:38:49;;;;;;;13.20;7.27;;;6.00;93.50;;;;;;5072650;28;20261;-76
2023/01/29 07:41:18;;;;;;;13.00;6.63;;;6.10;93.50;;;;;;5067627;28;20251;-78
2023/01/29 07:43:46;;;;;;;12.47;6.20;;;6.10;93.50;;;;;;5070664;28;20189;-76
2023/01/29 07:46:15;;;;;;;12.67;6.40;;;6.10;93.40;;;;;;5059311;28;20627;-77
2023/01/29 07:48:43;;;;;;;15.83;7.33;;;6.20;93.40;;;;;;5065578;28;20245;-76
2023/01/29 07:51:13;;;;;;;13.77;6.93;;;6.20;93.40;;;;;;5069718;28;20202;-78
2023/01/29 07:53:43;;;;;;;12.90;7.05;;;6.30;93.50;;;;;;5062515;28;20443;-76
2023/01/29 07:56:11;;;;;;;15.93;7.33;;;6.30;93.60;;;;;;5068721;28;20192;-77
2023/01/29 07:58:39;;;;;;;12.87;6.67;;;6.30;93.60;;;;;;5067701;28;20221;-77
2023/01/29 08:01:08;;;;;;;14.13;6.23;;;6.40;93.50;;;;;;5069437;28;20201;-78
2023/01/29 08:03:37;;;;;;;12.67;6.53;;;6.40;93.40;;;;;;5075096;28;20304;-79
2023/01/29 08:06:05;;;;;;;13.57;6.37;;;6.40;93.30;;;;;;5069980;28;20254;-77
2023/01/29 08:08:35;;;;;;;18.80;7.53;;;6.50;93.30;;;;;;5068796;28;20642;-76
2023/01/29 08:11:04;;;;;;;13.03;6.60;;;6.50;93.20;;;;;;5069491;28;20196;-76
2023/01/29 08:13:33;;;;;;;13.57;6.60;;;6.40;93.10;;;;;;5059683;28;20224;-77
2023/01/29 08:16:02;;;;;;;14.03;7.43;;;6.50;93.10;;;;;;5062031;28;20717;-75
2023/01/29 08:18:31;;;;;;;13.47;6.47;;;6.50;93.10;;;;;;5077647;28;20217;-75
2023/01/29 08:21:00;;;;;;;12.83;6.23;;;6.50;93.10;;;;;;5065809;28;20261;-76
2023/01/29 08:23:29;;;;;;;15.43;6.73;;;6.60;93.00;;;;;;5070300;28;20448;-76
2023/01/29 08:25:58;;;;;;;11.93;6.27;;;6.60;93.00;;;;;;5066849;28;20892;-75
2023/01/29 08:28:27;;;;;;;11.43;6.23;;;6.70;93.00;;;;;;5060738;28;20201;-77
2023/01/29 08:30:55;;;;;;;15.07;6.83;;;6.80;92.90;;;;;;5065866;28;20571;-75
2023/01/29 08:33:27;;;;;;;14.27;6.75;;;6.80;92.90;;;;;;5070041;28;20439;-75
2023/01/29 08:36:06;;;;;;;13.20;6.03;;;6.80;92.70;;;;;;5063328;28;20189;-75
2023/01/29 08:38:35;;;;;;;14.80;7.40;;;6.90;92.80;;;;;;5067940;28;20685;-77
2023/01/29 08:41:05;;;;;;;12.83;6.20;;;7.00;92.70;;;;;;5067586;28;20266;-77
2023/01/29 08:43:35;;;;;;;13.00;6.47;;;7.00;92.70;;;;;;5070504;28;20562;-76
2023/01/29 08:46:06;;;;;;;13.73;6.53;;;7.10;92.70;;;;;;5061492;28;20444;-77
2023/01/29 08:48:35;;;;;;;14.07;6.63;;;7.20;92.60;;;;;;5064634;28;20198;-78
2023/01/29 08:51:04;;;;;;;14.80;7.57;;;7.10;92.20;;;;;;5058656;28;20982;-79
2023/01/29 08:53:32;;;;;;;10.83;6.10;;;7.10;92.10;;;;;;5065083;28;20254;-78
2023/01/29 08:56:01;;;;;;;13.53;6.37;;;7.20;92.00;;;;;;5069292;28;20220;-77
2023/01/29 08:58:31;;;;;;;15.20;6.97;;;7.20;92.00;;;;;;5067987;28;20827;-79
2023/01/29 09:01:06;;;;;;;12.03;6.60;;;7.30;92.10;;;;;;5063161;28;20615;-77
2023/01/29 09:03:34;;;;;;;11.83;6.63;;;7.40;91.90;;;;;;5050319;28;20221;-77
2023/01/29 09:06:06;;;;;;;13.53;6.50;;;7.40;91.90;;;;;;5067937;28;20201;-76
2023/01/29 09:08:34;;;;;;;15.60;7.50;;;7.60;92.00;;;;;;5079237;28;20242;-77
2023/01/29 09:11:03;;;;;;;11.57;5.83;;;7.60;91.90;;;;;;5064598;28;20240;-77
2023/01/29 09:13:33;;;;;;;11.87;6.73;;;7.70;91.80;;;;;;5075613;28;20220;-77
2023/01/29 09:16:02;;;;;;;13.43;6.73;;;7.70;91.70;;;;;;5067190;28;20190;-77
2023/01/29 09:18:31;;;;;;;12.45;7.20;;;7.70;91.70;;;;;;5055624;28;20451;-77
2023/01/29 09:21:01;;;;;;;14.03;6.83;;;7.70;91.80;;;;;;5068572;28;20610;-77
2023/01/29 09:23:30;;;;;;;10.63;6.03;;;7.70;91.80;;;;;;5064472;28;20198;-77
2023/01/29 09:25:58;;;;;;;14.07;6.40;;;7.80;91.80;;;;;;5067569;28;20690;-79
2023/01/29 09:28:39;;;;;;;12.87;6.93;;;7.70;91.50;;;;;;5052651;28;20207;-79
2023/01/29 09:31:12;;;;;;;10.40;5.83;;;7.70;91.30;;;;;;5066958;28;20225;-78
2023/01/29 09:33:40;;;;;;;13.50;6.53;;;7.80;91.30;;;;;;5074313;28;20222;-81
2023/01/29 09:36:09;;;;;;;14.07;6.83;;;7.80;91.30;;;;;;5074966;28;20199;-80
2023/01/29 09:38:37;;;;;;;13.20;6.80;;;7.80;91.50;;;;;;5062783;28;20279;-79
2023/01/29 09:41:15;;;;;;;12.17;7.10;;;7.80;91.50;;;;;;5065005;28;20607;-79
2023/01/29 09:43:49;;;;;;;13.30;6.93;;;7.80;91.40;;;;;;5068808;28;20654;-80
2023/01/29 09:46:22;;;;;;;15.73;7.90;;;7.80;91.30;;;;;;5066184;28;20252;-79
2023/01/29 09:48:57;;;;;;;14.50;7.30;;;7.80;91.30;;;;;;5068191;28;20278;-79
2023/01/29 09:51:29;;;;;;;12.03;7.80;;;7.80;91.20;;;;;;5061805;28;20263;-79
2023/01/29 09:54:10;;;;;;;12.63;7.10;;;7.70;91.00;;;;;;5073108;28;20247;-79
2023/01/29 09:56:45;;;;;;;16.07;8.27;;;7.70;91.00;;;;;;5066005;28;20236;-80
2023/01/29 09:59:36;;;;;;;19.80;8.33;;;7.70;91.10;;;;;;5066732;28;20216;-80
2023/01/29 10:02:10;;;;;;;14.93;8.10;;;7.70;91.10;;;;;;5065055;28;20214;-80
2023/01/29 10:05:25;;;;;;;15.17;8.10;;;7.80;91.20;;;;;;5066431;28;20186;-79
2023/01/29 10:08:18;;;;;;;16.80;8.40;;;7.80;91.10;;;;;;5038093;28;20195;-79
2023/01/29 10:10:51;;;;;;;15.63;7.80;;;7.80;91.00;;;;;;5066326;28;20190;-79
2023/01/29 10:13:29;;;;;;;12.77;8.30;;;7.80;91.10;;;;;;5065787;28;20198;-78
2023/01/29 10:16:20;;;;;;;13.50;7.60;;;7.80;91.00;;;;;;5064225;28;20736;-80
2023/01/29 10:19:06;;;;;;;14.80;7.90;;;7.70;90.90;;;;;;5034241;28;20209;-79
2023/01/29 10:21:55;;;;;;;15.20;8.35;;;7.70;90.90;;;;;;5065963;28;20440;-80
2023/01/29 10:24:35;;;;;;;19.77;8.57;;;7.70;91.10;;;;;;5069611;28;20193;-78
2023/01/29 10:27:05;;;;;;;15.30;8.37;;;7.70;91.10;;;;;;5063290;28;20189;-79
2023/01/29 10:29:35;;;;;;;16.53;8.53;;;7.70;91.20;;;;;;5067285;28;20661;-77
2023/01/29 10:32:05;;;;;;;17.73;8.00;;;7.60;91.10;;;;;;5063498;28;20221;-78
2023/01/29 10:34:38;;;;;;;17.33;8.50;;;7.60;91.10;;;;;;5063573;28;20198;-79
2023/01/29 10:37:17;;;;;;;19.20;9.73;;;7.60;91.20;;;;;;5068415;28;20186;-79
2023/01/29 10:39:46;;;;;;;16.93;9.37;;;7.60;91.30;;;;;;5062943;28;20659;-79
2023/01/29 10:42:29;;;;;;;17.37;8.93;;;7.60;91.20;;;;;;5063165;28;20202;-79
2023/01/29 10:45:07;;;;;;;19.60;10.17;;;7.60;91.20;;;;;;5056075;28;20186;-79
2023/01/29 10:48:05;;;;;;;21.27;10.90;;;7.60;91.30;;;;;;5062649;28;20510;-79
2023/01/29 10:50:54;;;;;;;18.47;10.13;;;7.60;91.40;;;;;;5061212;28;20537;-77
2023/01/29 10:56:45;;;;;;;20.03;10.33;;;7.70;91.30;;;;;;5112401;23;20596;-78
2023/01/29 10:59:28;;;;;;;24.80;9.97;;;7.70;91.30;;;;;;4984957;28;20626;-77
2023/01/29 11:01:59;;;;;;;19.70;9.40;;;7.70;91.30;;;;;;4981875;28;20197;-79
2023/01/29 11:04:30;;;;;;;18.27;9.83;;;7.70;91.30;;;;;;4989205;28;20536;-76
2023/01/29 11:06:59;;;;;;;17.43;9.10;;;7.70;91.30;;;;;;4977811;28;20201;-77
2023/01/29 11:09:34;;;;;;;20.67;10.00;;;7.70;91.20;;;;;;4986653;28;20201;-75
2023/01/29 11:12:10;;;;;;;22.17;9.63;;;7.70;91.50;;;;;;4987474;28;20292;-76
2023/01/29 11:14:44;;;;;;;21.90;10.60;;;7.70;91.20;;;;;;4988320;28;20200;-77
2023/01/29 11:17:16;;;;;;;18.27;9.50;;;7.70;91.20;;;;;;4982039;28;20255;-77
2023/01/29 11:19:50;;;;;;;20.27;9.37;;;7.60;91.20;;;;;;4987721;28;20229;-76
2023/01/29 11:22:19;;;;;;;20.83;10.03;;;7.70;91.30;;;;;;4983982;28;20189;-76
2023/01/29 11:25:08;;;;;;;20.80;10.43;;;7.70;91.30;;;;;;4982884;28;20236;-77
2023/01/29 11:27:44;;;;;;;25.53;10.73;;;7.70;91.30;;;;;;4978459;28;20650;-77
2023/01/29 11:30:21;;;;;;;23.13;10.13;;;7.70;91.30;;;;;;4981412;28;20197;-78
2023/01/29 11:32:56;;;;;;;24.93;11.70;;;7.70;91.30;;;;;;4976281;28;20184;-78
2023/01/29 11:35:26;;;;;;;30.67;13.17;;;7.70;91.30;;;;;;4985359;28;20192;-78
2023/01/29 11:38:07;;;;;;;26.93;11.83;;;7.70;91.30;;;;;;4980480;28;20224;-79
2023/01/29 11:40:40;;;;;;;22.80;10.73;;;7.70;91.30;;;;;;4990937;28;20208;-78
2023/01/29 11:43:30;;;;;;;20.73;10.37;;;7.70;91.30;;;;;;4990227;28;20646;-77
2023/01/29 11:46:02;;;;;;;20.60;9.73;;;7.70;91.30;;;;;;4978257;28;20197;-80
2023/01/29 11:48:39;;;;;;;19.87;9.47;;;7.80;91.30;;;;;;4991079;28;20531;-79
2023/01/29 11:51:12;;;;;;;23.85;12.02;;;7.80;91.30;;;;;;4995718;28;20496;-78
2023/01/29 11:53:43;;;;;;;22.97;11.23;;;7.80;91.40;;;;;;4988150;28;20200;-78
2023/01/29 11:56:22;;;;;;;21.13;11.27;;;7.80;91.40;;;;;;4997148;28;20225;-78
2023/01/29 11:58:53;;;;;;;19.70;10.43;;;7.80;91.40;;;;;;4993483;28;20267;-78
2023/01/29 12:01:31;;;;;;;20.57;10.90;;;7.80;91.50;;;;;;4984791;28;20260;-77
2023/01/29 12:04:00;;;;;;;24.10;12.65;;;7.80;91.40;;;;;;4991719;28;20497;-78
2023/01/29 12:06:35;;;;;;;25.03;12.57;;;7.80;91.50;;;;;;4988545;28;20228;-78
2023/01/29 12:09:11;;;;;;;26.60;12.93;;;7.80;91.60;;;;;;4988217;28;20235;-78
2023/01/29 12:11:44;;;;;;;25.27;11.60;;;7.80;91.50;;;;;;4990987;28;20741;-77
2023/01/29 12:14:28;;;;;;;26.93;11.97;;;7.80;91.50;;;;;;4993312;28;20201;-79
2023/01/29 12:17:01;;;;;;;27.40;11.53;;;7.80;91.40;;;;;;4983465;28;20593;-78
2023/01/29 12:19:35;;;;;;;29.33;12.53;;;7.80;91.30;;;;;;4996712;28;20274;-78
2023/01/29 12:22:11;;;;;;;26.13;11.77;;;7.80;91.40;;;;;;4988420;28;20306;-78
2023/01/29 12:24:46;;;;;;;26.10;12.57;;;7.70;91.20;;;;;;4990827;28;20188;-78
2023/01/29 12:27:19;;;;;;;24.93;11.77;;;7.70;91.20;;;;;;4992456;28;20200;-79
2023/01/29 12:29:52;;;;;;;23.83;11.57;;;7.70;91.30;;;;;;4993731;28;20609;-79
2023/01/29 12:32:32;;;;;;;25.00;12.00;;;7.80;91.30;;;;;;4987206;28;20211;-78
2023/01/29 12:35:06;;;;;;;25.43;11.87;;;7.70;91.30;;;;;;4989909;28;20228;-79
2023/01/29 12:37:42;;;;;;;26.17;11.93;;;7.70;91.30;;;;;;4987203;28;20197;-78
2023/01/29 12:40:15;;;;;;;30.07;14.40;;;7.60;91.30;;;;;;4994644;28;20196;-79
2023/01/29 12:42:48;;;;;;;42.90;17.20;;;7.60;91.30;;;;;;4997138;28;20304;-78
2023/01/29 12:45:19;;;;;;;29.17;13.13;;;7.70;91.40;;;;;;4989165;28;20254;-78
2023/01/29 12:47:51;;;;;;;27.60;13.00;;;7.70;91.50;;;;;;4993569;28;20950;-78
2023/01/29 12:50:22;;;;;;;26.80;12.80;;;7.70;91.50;;;;;;4999872;28;20196;-78
2023/01/29 12:52:55;;;;;;;27.40;13.03;;;7.70;91.50;;;;;;4996987;28;20317;-78
2023/01/29 12:55:27;;;;;;;21.00;10.53;;;7.70;91.50;;;;;;4994597;28;20295;-77
2023/01/29 12:57:58;;;;;;;23.47;11.83;;;7.70;91.50;;;;;;4988808;28;20197;-78
2023/01/29 13:00:29;;;;;;;28.35;13.70;;;7.60;91.50;;;;;;4999613;28;20528;-78
2023/01/29 13:03:04;;;;;;;23.60;11.63;;;7.60;91.70;;;;;;4999776;28;20676;-80
2023/01/29 13:05:39;;;;;;;25.07;12.43;;;7.60;91.70;;;;;;4997420;28;20252;-78
2023/01/29 13:08:14;;;;;;;23.53;11.33;;;7.70;91.70;;;;;;4988274;28;20748;-79
2023/01/29 13:10:46;;;;;;;23.73;11.40;;;7.60;91.70;;;;;;4986586;28;20196;-79
2023/01/29 13:13:28;;;;;;;22.33;11.83;;;7.60;91.70;;;;;;4997923;28;20200;-80
2023/01/29 13:15:59;;;;;;;27.37;12.30;;;7.60;91.60;;;;;;4992975;28;20302;-79
2023/01/29 13:18:41;;;;;;;20.63;11.27;;;7.60;91.60;;;;;;4987993;28;20556;-78
2023/01/29 13:21:15;;;;;;;22.70;10.87;;;7.60;91.60;;;;;;4988356;28;20612;-80
2023/01/29 13:23:48;;;;;;;22.77;12.10;;;7.60;91.60;;;;;;4992471;28;20203;-79
2023/01/29 13:26:18;;;;;;;28.43;13.50;;;7.60;91.60;;;;;;4985154;28;20202;-80
2023/01/29 13:28:48;;;;;;;23.17;12.20;;;7.50;91.60;;;;;;4988204;28;20208;-80
2023/01/29 13:31:27;;;;;;;25.53;12.37;;;7.50;91.60;;;;;;4993185;28;20205;-79
2023/01/29 13:34:04;;;;;;;24.23;12.90;;;7.50;91.60;;;;;;4993106;28;20195;-80
2023/01/29 13:36:33;;;;;;;27.40;13.20;;;7.50;91.70;;;;;;4988607;28;20191;-80
2023/01/29 13:39:05;;;;;;;22.17;12.03;;;7.40;91.70;;;;;;4982457;28;20715;-81